sensor_id;sensor_type;location;lat;lon;timestamp;pressure;altitude;pressure_sealevel;temperature;humidity
29239;BME280;16267;48.194;11.546;2023-05-01T00:00:08;95857.34;;;12.15;57.46
29239;BME280;16267;48.194;11.546;2023-05-01T00:02:35;95854.72;;;12.12;57.56
29239;BME280;16267;48.194;11.546;2023-05-01T00:05:02;95849.34;;;12.12;57.72
29239;BME280;16267;48.194;11.546;2023-05-01T00:07:28;95846.72;;;12.08;57.65
29239;BME280;16267;48.194;11.546;2023-05-01T00:09:56;95851.75;;;12.06;57.86
29239;BME280;16267;48.194;11.546;2023-05-01T00:12:22;95844.84;;;12.05;57.79
29239;BME280;16267;48.194;11.546;2023-05-01T00:14:48;95838.78;;;12.01;57.87
29239;BME280;16267;48.194;11.546;2023-05-01T00:17:15;95831.91;;;12.00;57.64
29239;BME280;16267;48.194;11.546;2023-05-01T00:19:41;95840.38;;;11.98;58.04
29239;BME280;16267;48.194;11.546;2023-05-01T00:22:07;95835.38;;;11.97;58.18
29239;BME280;16267;48.194;11.546;2023-05-01T00:24:32;95824.63;;;11.97;58.32
29239;BME280;16267;48.194;11.546;2023-05-01T00:26:58;95823.25;;;11.89;58.43
29239;BME280;16267;48.194;11.546;2023-05-01T00:29:24;95823.25;;;11.89;58.44
29239;BME280;16267;48.194;11.546;2023-05-01T00:31:50;95818.69;;;11.86;58.32
29239;BME280;16267;48.194;11.546;2023-05-01T00:34:16;95813.72;;;11.84;58.48
29239;BME280;16267;48.194;11.546;2023-05-01T00:36:42;95816.03;;;11.82;58.65
29239;BME280;16267;48.194;11.546;2023-05-01T00:39:07;95811.41;;;11.82;58.66
29239;BME280;16267;48.194;11.546;2023-05-01T00:41:36;95804.94;;;11.80;58.55
29239;BME280;16267;48.194;11.546;2023-05-01T00:44:02;95808.81;;;11.79;58.63
29239;BME280;16267;48.194;11.546;2023-05-01T00:46:28;95806.50;;;11.77;58.63
29239;BME280;16267;48.194;11.546;2023-05-01T00:48:56;95808.44;;;11.77;58.89
29239;BME280;16267;48.194;11.546;2023-05-01T00:51:22;95813.81;;;11.77;58.96
29239;BME280;16267;48.194;11.546;2023-05-01T00:53:48;95805.41;;;11.75;59.05
29239;BME280;16267;48.194;11.546;2023-05-01T00:56:15;95812.72;;;11.74;59.01
29239;BME280;16267;48.194;11.546;2023-05-01T00:58:41;95805.81;;;11.73;59.11
29239;BME280;16267;48.194;11.546;2023-05-01T01:01:08;95800.84;;;11.72;59.18
29239;BME280;16267;48.194;11.546;2023-05-01T01:03:34;95801.28;;;11.70;59.19
29239;BME280;16267;48.194;11.546;2023-05-01T01:06:14;95801.34;;;11.67;59.14
29239;BME280;16267;48.194;11.546;2023-05-01T01:08:53;95801.75;;;11.65;59.10
29239;BME280;16267;48.194;11.546;2023-05-01T01:11:35;95799.44;;;11.64;59.04
29239;BME280;16267;48.194;11.546;2023-05-01T01:14:14;95799.53;;;11.60;59.24
29239;BME280;16267;48.194;11.546;2023-05-01T01:17:02;95799.53;;;11.60;59.53
29239;BME280;16267;48.194;11.546;2023-05-01T01:22:20;95801.09;;;11.57;60.07
29239;BME280;16267;48.194;11.546;2023-05-01T01:28:46;95798.50;;;11.54;59.88
29239;BME280;16267;48.194;11.546;2023-05-01T01:31:20;95790.81;;;11.52;60.33
29239;BME280;16267;48.194;11.546;2023-05-01T01:36:46;95788.19;;;11.49;60.45
29239;BME280;16267;48.194;11.546;2023-05-01T01:41:58;95780.97;;;11.46;60.28
29239;BME280;16267;48.194;11.546;2023-05-01T01:47:15;95784.88;;;11.41;60.36
29239;BME280;16267;48.194;11.546;2023-05-01T01:49:47;95778.38;;;11.38;60.49
29239;BME280;16267;48.194;11.546;2023-05-01T01:52:15;95776.13;;;11.37;60.54
29239;BME280;16267;48.194;11.546;2023-05-01T01:55:06;95768.13;;;11.33;60.77
29239;BME280;16267;48.194;11.546;2023-05-01T01:57:39;95765.84;;;11.32;60.52
29239;BME280;16267;48.194;11.546;2023-05-01T02:00:09;95766.66;;;11.29;60.96
29239;BME280;16267;48.194;11.546;2023-05-01T02:02:37;95769.41;;;11.25;60.91
29239;BME280;16267;48.194;11.546;2023-05-01T02:05:10;95756.03;;;11.22;60.94
29239;BME280;16267;48.194;11.546;2023-05-01T02:07:38;95766.44;;;11.20;60.45
29239;BME280;16267;48.194;11.546;2023-05-01T02:10:07;95757.25;;;11.17;60.90
29239;BME280;16267;48.194;11.546;2023-05-01T02:12:35;95763.44;;;11.14;60.96
29239;BME280;16267;48.194;11.546;2023-05-01T02:15:02;95756.97;;;11.11;61.12
29239;BME280;16267;48.194;11.546;2023-05-01T02:17:29;95752.00;;;11.10;61.40
29239;BME280;16267;48.194;11.546;2023-05-01T02:19:56;95747.03;;;11.08;61.23
29239;BME280;16267;48.194;11.546;2023-05-01T02:22:24;95742.47;;;11.05;61.13
29239;BME280;16267;48.194;11.546;2023-05-01T02:24:53;95750.19;;;11.03;61.58
29239;BME280;16267;48.194;11.546;2023-05-01T02:27:24;95745.66;;;11.00;61.81
29239;BME280;16267;48.194;11.546;2023-05-01T02:29:52;95742.19;;;11.00;61.97
29239;BME280;16267;48.194;11.546;2023-05-01T02:32:18;95737.97;;;10.99;61.97
29239;BME280;16267;48.194;11.546;2023-05-01T02:34:44;95733.44;;;10.96;61.79
29239;BME280;16267;48.194;11.546;2023-05-01T02:37:10;95738.81;;;10.96;62.38
29239;BME280;16267;48.194;11.546;2023-05-01T02:39:38;95738.88;;;10.92;62.33
29239;BME280;16267;48.194;11.546;2023-05-01T02:42:05;95735.81;;;10.90;62.66
29239;BME280;16267;48.194;11.546;2023-05-01T02:44:50;95728.91;;;10.89;62.59
29239;BME280;16267;48.194;11.546;2023-05-01T02:47:20;95736.63;;;10.87;62.72
29239;BME280;16267;48.194;11.546;2023-05-01T02:49:48;95728.97;;;10.85;62.88
29239;BME280;16267;48.194;11.546;2023-05-01T02:52:17;95719.41;;;10.84;62.98
29239;BME280;16267;48.194;11.546;2023-05-01T02:54:44;95719.06;;;10.82;62.93
29239;BME280;16267;48.194;11.546;2023-05-01T02:57:11;95720.25;;;10.81;63.28
29239;BME280;16267;48.194;11.546;2023-05-01T02:59:37;95713.00;;;10.78;63.08
29239;BME280;16267;48.194;11.546;2023-05-01T03:02:03;95718.75;;;10.77;63.01
29239;BME280;16267;48.194;11.546;2023-05-01T03:04:29;95717.66;;;10.74;63.42
29239;BME280;16267;48.194;11.546;2023-05-01T03:06:54;95711.91;;;10.72;63.41
29239;BME280;16267;48.194;11.546;2023-05-01T03:09:21;95723.47;;;10.69;63.53
29239;BME280;16267;48.194;11.546;2023-05-01T03:11:47;95721.59;;;10.66;63.48
29239;BME280;16267;48.194;11.546;2023-05-01T03:14:13;95723.94;;;10.64;63.63
29239;BME280;16267;48.194;11.546;2023-05-01T03:16:38;95722.81;;;10.61;63.74
29239;BME280;16267;48.194;11.546;2023-05-01T03:19:05;95720.19;;;10.58;63.86
29239;BME280;16267;48.194;11.546;2023-05-01T03:21:31;95723.31;;;10.53;64.10
29239;BME280;16267;48.194;11.546;2023-05-01T03:23:58;95714.59;;;10.48;64.37
29239;BME280;16267;48.194;11.546;2023-05-01T03:26:24;95716.91;;;10.46;64.24
29239;BME280;16267;48.194;11.546;2023-05-01T03:28:50;95713.47;;;10.46;64.36
29239;BME280;16267;48.194;11.546;2023-05-01T03:31:16;95713.09;;;10.44;64.29
29239;BME280;16267;48.194;11.546;2023-05-01T03:33:42;95714.69;;;10.41;64.25
29239;BME280;16267;48.194;11.546;2023-05-01T03:36:08;95713.16;;;10.40;64.48
29239;BME280;16267;48.194;11.546;2023-05-01T03:38:36;95709.38;;;10.38;64.40
29239;BME280;16267;48.194;11.546;2023-05-01T03:41:02;95707.06;;;10.36;64.60
29239;BME280;16267;48.194;11.546;2023-05-01T03:43:31;95703.31;;;10.34;64.60
29239;BME280;16267;48.194;11.546;2023-05-01T03:45:57;95711.75;;;10.32;64.61
29239;BME280;16267;48.194;11.546;2023-05-01T03:48:23;95712.19;;;10.27;64.99
29239;BME280;16267;48.194;11.546;2023-05-01T03:50:50;95711.47;;;10.23;65.51
29239;BME280;16267;48.194;11.546;2023-05-01T03:53:16;95710.75;;;10.19;65.47
29239;BME280;16267;48.194;11.546;2023-05-01T03:55:42;95711.97;;;10.14;66.29
29239;BME280;16267;48.194;11.546;2023-05-01T03:58:08;95703.94;;;10.11;66.30
29239;BME280;16267;48.194;11.546;2023-05-01T04:00:35;95713.91;;;10.10;66.23
29239;BME280;16267;48.194;11.546;2023-05-01T04:03:02;95704.75;;;10.08;66.19
29239;BME280;16267;48.194;11.546;2023-05-01T04:05:29;95706.69;;;10.07;66.17
29239;BME280;16267;48.194;11.546;2023-05-01T04:07:55;95701.72;;;10.05;65.91
29239;BME280;16267;48.194;11.546;2023-05-01T04:10:22;95699.03;;;10.05;65.97
29239;BME280;16267;48.194;11.546;2023-05-01T04:12:47;95700.22;;;10.04;66.08
29239;BME280;16267;48.194;11.546;2023-05-01T04:15:13;95692.56;;;10.03;66.11
29239;BME280;16267;48.194;11.546;2023-05-01T04:17:39;95691.78;;;10.02;65.74
29239;BME280;16267;48.194;11.546;2023-05-01T04:20:06;95689.53;;;10.01;65.92
29239;BME280;16267;48.194;11.546;2023-05-01T04:22:32;95689.53;;;10.01;66.01
29239;BME280;16267;48.194;11.546;2023-05-01T04:24:58;95690.72;;;9.96;66.76
29239;BME280;16267;48.194;11.546;2023-05-01T04:27:24;95688.44;;;9.95;67.16
29239;BME280;16267;48.194;11.546;2023-05-01T04:29:50;95700.34;;;9.94;67.56
29239;BME280;16267;48.194;11.546;2023-05-01T04:32:15;95703.00;;;9.94;67.74
29239;BME280;16267;48.194;11.546;2023-05-01T04:34:42;95701.09;;;9.94;67.53
29239;BME280;16267;48.194;11.546;2023-05-01T04:37:10;95698.41;;;9.94;67.22
29239;BME280;16267;48.194;11.546;2023-05-01T04:39:36;95694.59;;;9.95;67.43
29239;BME280;16267;48.194;11.546;2023-05-01T04:42:03;95693.03;;;9.98;67.45
29239;BME280;16267;48.194;11.546;2023-05-01T04:44:29;95698.38;;;9.98;67.23
29239;BME280;16267;48.194;11.546;2023-05-01T04:46:55;95691.47;;;10.00;67.24
29239;BME280;16267;48.194;11.546;2023-05-01T04:49:21;95691.78;;;10.02;66.80
29239;BME280;16267;48.194;11.546;2023-05-01T04:51:47;95694.84;;;10.04;66.80
29239;BME280;16267;48.194;11.546;2023-05-01T04:54:13;95697.13;;;10.06;67.00
29239;BME280;16267;48.194;11.546;2023-05-01T04:56:39;95698.22;;;10.09;66.94
29239;BME280;16267;48.194;11.546;2023-05-01T04:59:04;95696.66;;;10.11;66.88
29239;BME280;16267;48.194;11.546;2023-05-01T05:01:30;95696.63;;;10.15;66.98
29239;BME280;16267;48.194;11.546;2023-05-01T05:03:56;95695.47;;;10.16;66.92
29239;BME280;16267;48.194;11.546;2023-05-01T05:06:22;95701.94;;;10.18;66.97
29239;BME280;16267;48.194;11.546;2023-05-01T05:08:47;95701.56;;;10.20;66.94
29239;BME280;16267;48.194;11.546;2023-05-01T05:11:17;95699.19;;;10.22;66.98
29239;BME280;16267;48.194;11.546;2023-05-01T05:13:44;95690.00;;;10.23;67.20
29239;BME280;16267;48.194;11.546;2023-05-01T05:18:38;95689.94;;;10.26;67.14
29239;BME280;16267;48.194;11.546;2023-05-01T05:21:04;95695.28;;;10.30;67.31
29239;BME280;16267;48.194;11.546;2023-05-01T05:23:31;95697.16;;;10.33;67.05
29239;BME280;16267;48.194;11.546;2023-05-01T05:25:57;95693.28;;;10.38;67.43
29239;BME280;16267;48.194;11.546;2023-05-01T05:28:28;95699.34;;;10.42;67.42
29239;BME280;16267;48.194;11.546;2023-05-01T05:30:57;95710.41;;;10.47;67.36
29239;BME280;16267;48.194;11.546;2023-05-01T05:33:24;95709.53;;;10.54;66.95
29239;BME280;16267;48.194;11.546;2023-05-01T05:35:53;95706.38;;;10.59;67.01
29239;BME280;16267;48.194;11.546;2023-05-01T05:38:19;95708.53;;;10.68;66.92
29239;BME280;16267;48.194;11.546;2023-05-01T05:40:45;95706.91;;;10.74;66.56
29239;BME280;16267;48.194;11.546;2023-05-01T05:43:10;95702.59;;;10.80;66.87
29239;BME280;16267;48.194;11.546;2023-05-01T05:45:37;95705.19;;;10.87;66.76
29239;BME280;16267;48.194;11.546;2023-05-01T05:48:03;95699.69;;;10.94;66.58
29239;BME280;16267;48.194;11.546;2023-05-01T05:50:28;95705.00;;;10.98;66.18
29239;BME280;16267;48.194;11.546;2023-05-01T05:52:54;95710.66;;;11.04;65.92
29239;BME280;16267;48.194;11.546;2023-05-01T05:55:20;95710.53;;;11.11;66.05
29239;BME280;16267;48.194;11.546;2023-05-01T05:57:46;95706.63;;;11.15;65.04
29239;BME280;16267;48.194;11.546;2023-05-01T06:00:12;95710.03;;;11.20;65.48
29239;BME280;16267;48.194;11.546;2023-05-01T06:02:39;95713.78;;;11.22;65.76
29239;BME280;16267;48.194;11.546;2023-05-01T06:05:05;95714.50;;;11.26;65.29
29239;BME280;16267;48.194;11.546;2023-05-01T06:07:31;95715.25;;;11.27;65.18
29239;BME280;16267;48.194;11.546;2023-05-01T06:09:57;95709.13;;;11.26;64.95
29239;BME280;16267;48.194;11.546;2023-05-01T06:12:29;95706.03;;;11.28;64.86
29239;BME280;16267;48.194;11.546;2023-05-01T06:14:59;95712.09;;;11.32;65.13
29239;BME280;16267;48.194;11.546;2023-05-01T06:17:25;95712.78;;;11.36;65.38
29239;BME280;16267;48.194;11.546;2023-05-01T06:19:51;95702.00;;;11.39;65.49
29239;BME280;16267;48.194;11.546;2023-05-01T06:22:18;95699.63;;;11.42;65.18
29239;BME280;16267;48.194;11.546;2023-05-01T06:24:44;95700.13;;;11.36;63.67
29239;BME280;16267;48.194;11.546;2023-05-01T06:27:10;95699.34;;;11.36;63.12
29239;BME280;16267;48.194;11.546;2023-05-01T06:29:36;95698.47;;;11.43;64.22
29239;BME280;16267;48.194;11.546;2023-05-01T06:32:02;95705.28;;;11.47;64.97
29239;BME280;16267;48.194;11.546;2023-05-01T06:34:28;95700.97;;;11.53;64.94
29239;BME280;16267;48.194;11.546;2023-05-01T06:36:54;95710.06;;;11.59;65.67
29239;BME280;16267;48.194;11.546;2023-05-01T06:39:20;95703.03;;;11.66;66.00
29239;BME280;16267;48.194;11.546;2023-05-01T06:41:46;95697.19;;;11.71;65.12
29239;BME280;16267;48.194;11.546;2023-05-01T06:44:12;95704.00;;;11.75;64.75
29239;BME280;16267;48.194;11.546;2023-05-01T06:46:38;95705.44;;;11.80;64.11
29239;BME280;16267;48.194;11.546;2023-05-01T06:49:04;95706.53;;;11.82;63.53
29239;BME280;16267;48.194;11.546;2023-05-01T06:51:31;95704.97;;;11.85;63.22
29239;BME280;16267;48.194;11.546;2023-05-01T06:53:57;95706.84;;;11.88;62.98
29239;BME280;16267;48.194;11.546;2023-05-01T06:56:23;95708.72;;;11.91;63.07
29239;BME280;16267;48.194;11.546;2023-05-01T06:58:48;95708.22;;;11.96;63.86
29239;BME280;16267;48.194;11.546;2023-05-01T07:01:15;95709.31;;;11.99;63.97
29239;BME280;16267;48.194;11.546;2023-05-01T07:03:41;95708.09;;;12.03;64.36
29239;BME280;16267;48.194;11.546;2023-05-01T07:06:07;95712.28;;;12.04;63.40
29239;BME280;16267;48.194;11.546;2023-05-01T07:08:32;95715.25;;;12.10;63.37
29239;BME280;16267;48.194;11.546;2023-05-01T07:10:58;95714.00;;;12.15;62.95
29239;BME280;16267;48.194;11.546;2023-05-01T07:13:24;95706.19;;;12.20;63.69
29239;BME280;16267;48.194;11.546;2023-05-01T07:15:50;95709.91;;;12.26;63.48
29239;BME280;16267;48.194;11.546;2023-05-01T07:18:16;95709.41;;;12.32;62.83
29239;BME280;16267;48.194;11.546;2023-05-01T07:20:42;95700.09;;;12.36;62.99
29239;BME280;16267;48.194;11.546;2023-05-01T07:23:08;95706.91;;;12.41;62.09
29239;BME280;16267;48.194;11.546;2023-05-01T07:25:36;95706.00;;;12.47;62.03
29239;BME280;16267;48.194;11.546;2023-05-01T07:28:02;95702.03;;;12.52;62.93
29239;BME280;16267;48.194;11.546;2023-05-01T07:30:30;95702.28;;;12.58;62.83
29239;BME280;16267;48.194;11.546;2023-05-01T07:32:57;95699.53;;;12.61;61.86
29239;BME280;16267;48.194;11.546;2023-05-01T07:35:23;95704.09;;;12.64;60.78
29239;BME280;16267;48.194;11.546;2023-05-01T07:37:50;95697.41;;;12.69;62.05
29239;BME280;16267;48.194;11.546;2023-05-01T07:40:17;95705.00;;;12.74;62.24
29239;BME280;16267;48.194;11.546;2023-05-01T07:42:43;95706.94;;;12.73;60.93
29239;BME280;16267;48.194;11.546;2023-05-01T07:45:09;95711.13;;;12.75;60.24
29239;BME280;16267;48.194;11.546;2023-05-01T07:47:35;95710.72;;;12.76;61.23
29239;BME280;16267;48.194;11.546;2023-05-01T07:50:08;95704.25;;;12.73;60.50
29239;BME280;16267;48.194;11.546;2023-05-01T07:52:34;95712.56;;;12.79;61.57
29239;BME280;16267;48.194;11.546;2023-05-01T07:54:59;95713.94;;;12.87;62.04
29239;BME280;16267;48.194;11.546;2023-05-01T07:57:25;95711.47;;;12.93;61.74
29239;BME280;16267;48.194;11.546;2023-05-01T07:59:54;95722.16;;;12.97;61.74
29239;BME280;16267;48.194;11.546;2023-05-01T08:02:21;95722.50;;;12.99;61.87
29239;BME280;16267;48.194;11.546;2023-05-01T08:04:47;95718.91;;;13.05;62.45
29239;BME280;16267;48.194;11.546;2023-05-01T08:07:13;95726.03;;;13.12;62.93
29239;BME280;16267;48.194;11.546;2023-05-01T08:09:39;95720.31;;;13.10;60.90
29239;BME280;16267;48.194;11.546;2023-05-01T08:12:05;95728.38;;;13.10;60.84
29239;BME280;16267;48.194;11.546;2023-05-01T08:14:31;95726.38;;;13.14;61.17
29239;BME280;16267;48.194;11.546;2023-05-01T08:16:57;95726.97;;;13.05;60.33
29239;BME280;16267;48.194;11.546;2023-05-01T08:19:23;95732.03;;;13.03;60.32
29239;BME280;16267;48.194;11.546;2023-05-01T08:21:49;95732.88;;;13.00;60.57
29239;BME280;16267;48.194;11.546;2023-05-01T08:24:15;95728.00;;;12.95;59.49
29239;BME280;16267;48.194;11.546;2023-05-01T08:26:41;95738.06;;;12.91;59.53
29239;BME280;16267;48.194;11.546;2023-05-01T08:29:07;95737.56;;;12.80;60.45
29239;BME280;16267;48.194;11.546;2023-05-01T08:31:32;95737.41;;;12.87;60.79
29239;BME280;16267;48.194;11.546;2023-05-01T08:34:02;95742.63;;;12.78;61.10
29239;BME280;16267;48.194;11.546;2023-05-01T08:36:28;95736.03;;;12.62;61.01
29239;BME280;16267;48.194;11.546;2023-05-01T08:38:55;95742.09;;;12.66;61.61
29239;BME280;16267;48.194;11.546;2023-05-01T08:41:21;95738.88;;;12.55;62.05
29239;BME280;16267;48.194;11.546;2023-05-01T08:43:48;95739.25;;;12.73;62.94
29239;BME280;16267;48.194;11.546;2023-05-01T08:46:46;95743.38;;;12.78;62.91
29239;BME280;16267;48.194;11.546;2023-05-01T08:49:15;95743.13;;;12.72;63.17
29239;BME280;16267;48.194;11.546;2023-05-01T08:51:44;95746.00;;;12.82;63.96
29239;BME280;16267;48.194;11.546;2023-05-01T08:54:15;95743.38;;;12.78;63.70
29239;BME280;16267;48.194;11.546;2023-05-01T08:56:43;95748.59;;;12.85;63.90
29239;BME280;16267;48.194;11.546;2023-05-01T08:59:13;95750.28;;;12.79;64.29
29239;BME280;16267;48.194;11.546;2023-05-01T09:01:41;95748.94;;;12.71;64.45
29239;BME280;16267;48.194;11.546;2023-05-01T09:04:08;95758.78;;;12.78;65.18
29239;BME280;16267;48.194;11.546;2023-05-01T09:06:34;95754.22;;;12.75;65.50
29239;BME280;16267;48.194;11.546;2023-05-01T09:09:00;95755.75;;;12.76;65.53
29239;BME280;16267;48.194;11.546;2023-05-01T09:11:27;95762.25;;;12.78;65.94
29239;BME280;16267;48.194;11.546;2023-05-01T09:13:53;95763.00;;;12.79;67.05
29239;BME280;16267;48.194;11.546;2023-05-01T09:16:20;95757.69;;;12.75;67.37
29239;BME280;16267;48.194;11.546;2023-05-01T09:18:47;95765.44;;;12.73;67.72
29239;BME280;16267;48.194;11.546;2023-05-01T09:21:13;95766.00;;;12.64;69.53
29239;BME280;16267;48.194;11.546;2023-05-01T09:23:39;95768.22;;;12.69;69.91
29239;BME280;16267;48.194;11.546;2023-05-01T09:26:06;95767.88;;;12.67;70.81
29239;BME280;16267;48.194;11.546;2023-05-01T09:28:44;95775.81;;;12.55;73.18
29239;BME280;16267;48.194;11.546;2023-05-01T09:31:25;95776.66;;;12.52;74.45
29239;BME280;16267;48.194;11.546;2023-05-01T09:34:04;95782.44;;;12.34;75.47
29239;BME280;16267;48.194;11.546;2023-05-01T09:36:32;95782.69;;;12.39;75.75
29239;BME280;16267;48.194;11.546;2023-05-01T09:38:59;95782.59;;;12.43;76.89
29239;BME280;16267;48.194;11.546;2023-05-01T09:41:26;95781.59;;;12.37;77.67
29239;BME280;16267;48.194;11.546;2023-05-01T09:43:54;95785.16;;;12.30;79.16
29239;BME280;16267;48.194;11.546;2023-05-01T09:46:22;95778.94;;;12.33;79.23
29239;BME280;16267;48.194;11.546;2023-05-01T09:48:57;95778.91;;;12.37;80.19
29239;BME280;16267;48.194;11.546;2023-05-01T09:51:29;95779.03;;;12.30;81.12
29239;BME280;16267;48.194;11.546;2023-05-01T09:53:58;95782.00;;;12.35;82.84
29239;BME280;16267;48.194;11.546;2023-05-01T09:56:26;95782.69;;;12.39;83.16
29239;BME280;16267;48.194;11.546;2023-05-01T09:58:54;95788.47;;;12.38;82.88
29239;BME280;16267;48.194;11.546;2023-05-01T10:01:44;95792.00;;;12.35;85.18
29239;BME280;16267;48.194;11.546;2023-05-01T10:04:11;95792.91;;;12.28;85.53
29239;BME280;16267;48.194;11.546;2023-05-01T10:06:38;95791.13;;;12.21;85.85
29239;BME280;16267;48.194;11.546;2023-05-01T10:09:05;95786.09;;;12.23;85.40
29239;BME280;16267;48.194;11.546;2023-05-01T10:11:50;95794.50;;;12.25;84.68
29239;BME280;16267;48.194;11.546;2023-05-01T10:14:17;95790.72;;;12.23;85.06
29239;BME280;16267;48.194;11.546;2023-05-01T10:16:43;95793.75;;;12.25;83.91
29239;BME280;16267;48.194;11.546;2023-05-01T10:19:11;95787.75;;;12.17;83.72
29239;BME280;16267;48.194;11.546;2023-05-01T10:21:38;95790.16;;;12.12;83.36
29239;BME280;16267;48.194;11.546;2023-05-01T10:24:04;95793.47;;;11.99;85.23
29239;BME280;16267;48.194;11.546;2023-05-01T10:26:34;95794.63;;;11.98;86.20
29239;BME280;16267;48.194;11.546;2023-05-01T10:29:01;95795.41;;;11.99;85.81
29239;BME280;16267;48.194;11.546;2023-05-01T10:31:27;95794.25;;;12.00;85.93
29239;BME280;16267;48.194;11.546;2023-05-01T10:33:54;95797.69;;;12.00;87.10
29239;BME280;16267;48.194;11.546;2023-05-01T10:37:03;95795.75;;;12.01;86.78
29239;BME280;16267;48.194;11.546;2023-05-01T10:39:32;95796.44;;;12.05;86.91
29239;BME280;16267;48.194;11.546;2023-05-01T10:42:09;95791.88;;;12.02;87.49
29239;BME280;16267;48.194;11.546;2023-05-01T10:44:39;95794.00;;;11.91;87.85
29239;BME280;16267;48.194;11.546;2023-05-01T10:50:12;95791.94;;;11.98;86.48
29239;BME280;16267;48.194;11.546;2023-05-01T10:55:44;95789.47;;;11.88;88.69
29239;BME280;16267;48.194;11.546;2023-05-01T11:01:40;95770.69;;;11.84;88.71
29239;BME280;16267;48.194;11.546;2023-05-01T11:07:22;95775.31;;;11.83;90.30
29239;BME280;16267;48.194;11.546;2023-05-01T11:09:53;95768.75;;;11.84;89.62
29239;BME280;16267;48.194;11.546;2023-05-01T11:15:09;95769.81;;;11.91;89.07
29239;BME280;16267;48.194;11.546;2023-05-01T11:20:05;95760.91;;;11.94;89.00
29239;BME280;16267;48.194;11.546;2023-05-01T11:22:36;95757.38;;;11.97;90.07
29239;BME280;16267;48.194;11.546;2023-05-01T11:25:03;95761.19;;;11.99;90.42
29239;BME280;16267;48.194;11.546;2023-05-01T11:27:55;95758.75;;;12.05;90.81
29239;BME280;16267;48.194;11.546;2023-05-01T11:30:23;95762.91;;;12.10;90.60
29239;BME280;16267;48.194;11.546;2023-05-01T11:32:50;95759.38;;;12.13;90.60
29239;BME280;16267;48.194;11.546;2023-05-01T11:35:24;95757.06;;;12.15;90.09
29239;BME280;16267;48.194;11.546;2023-05-01T11:37:51;95750.09;;;12.17;89.95
29239;BME280;16267;48.194;11.546;2023-05-01T11:40:28;95757.31;;;12.20;89.32
29239;BME280;16267;48.194;11.546;2023-05-01T11:43:05;95744.22;;;12.22;88.95
29239;BME280;16267;48.194;11.546;2023-05-01T11:45:34;95743.13;;;12.20;90.52
29239;BME280;16267;48.194;11.546;2023-05-01T11:48:00;95748.16;;;12.18;90.53
29239;BME280;16267;48.194;11.546;2023-05-01T11:50:37;95745.81;;;12.20;92.37
29239;BME280;16267;48.194;11.546;2023-05-01T11:53:11;95746.91;;;12.22;90.98
29239;BME280;16267;48.194;11.546;2023-05-01T11:55:40;95752.22;;;12.26;92.27
29239;BME280;16267;48.194;11.546;2023-05-01T11:58:06;95755.66;;;12.26;92.18
29239;BME280;16267;48.194;11.546;2023-05-01T12:00:34;95750.19;;;12.30;92.18
29239;BME280;16267;48.194;11.546;2023-05-01T12:03:09;95747.84;;;12.32;92.06
29239;BME280;16267;48.194;11.546;2023-05-01T12:05:39;95754.69;;;12.37;91.42
29239;BME280;16267;48.194;11.546;2023-05-01T12:08:19;95755.03;;;12.39;90.82
29239;BME280;16267;48.194;11.546;2023-05-01T12:10:54;95754.94;;;12.42;89.23
29239;BME280;16267;48.194;11.546;2023-05-01T12:13:23;95759.06;;;12.47;89.16
29239;BME280;16267;48.194;11.546;2023-05-01T12:15:53;95755.88;;;12.52;87.90
29239;BME280;16267;48.194;11.546;2023-05-01T12:18:20;95754.22;;;12.58;87.80
29239;BME280;16267;48.194;11.546;2023-05-01T12:20:55;95759.44;;;12.65;89.68
29239;BME280;16267;48.194;11.546;2023-05-01T12:23:35;95761.72;;;12.67;92.48
29239;BME280;16267;48.194;11.546;2023-05-01T12:26:21;95763.13;;;12.71;92.67
29239;BME280;16267;48.194;11.546;2023-05-01T12:29:02;95761.03;;;12.63;91.51
29239;BME280;16267;48.194;11.546;2023-05-01T12:31:29;95755.91;;;12.68;93.33
29239;BME280;16267;48.194;11.546;2023-05-01T12:33:57;95755.41;;;12.73;93.55
29239;BME280;16267;48.194;11.546;2023-05-01T12:36:26;95757.69;;;12.75;92.54
29239;BME280;16267;48.194;11.546;2023-05-01T12:39:05;95750.03;;;12.73;93.41
29239;BME280;16267;48.194;11.546;2023-05-01T12:41:41;95757.59;;;12.79;93.84
29239;BME280;16267;48.194;11.546;2023-05-01T12:44:24;95757.09;;;12.84;93.49
29239;BME280;16267;48.194;11.546;2023-05-01T12:47:08;95749.78;;;12.84;92.97
29239;BME280;16267;48.194;11.546;2023-05-01T12:49:36;95750.88;;;12.87;94.05
29239;BME280;16267;48.194;11.546;2023-05-01T12:52:06;95755.94;;;12.85;94.15
29239;BME280;16267;48.194;11.546;2023-05-01T12:54:35;95755.00;;;12.91;94.25
29239;BME280;16267;48.194;11.546;2023-05-01T12:57:10;95767.22;;;12.96;95.26
29239;BME280;16267;48.194;11.546;2023-05-01T12:59:39;95755.94;;;13.01;94.71
29239;BME280;16267;48.194;11.546;2023-05-01T13:02:07;95755.44;;;13.06;94.67
29239;BME280;16267;48.194;11.546;2023-05-01T13:04:35;95761.47;;;13.10;94.72
29239;BME280;16267;48.194;11.546;2023-05-01T13:07:14;95753.75;;;13.12;95.26
29239;BME280;16267;48.194;11.546;2023-05-01T13:09:52;95762.41;;;13.20;94.82
29239;BME280;16267;48.194;11.546;2023-05-01T13:12:18;95756.94;;;13.24;93.70
29239;BME280;16267;48.194;11.546;2023-05-01T13:14:51;95756.44;;;13.29;94.22
29239;BME280;16267;48.194;11.546;2023-05-01T13:17:29;95754.00;;;13.34;93.80
29239;BME280;16267;48.194;11.546;2023-05-01T13:20:03;95763.94;;;13.37;93.46
29239;BME280;16267;48.194;11.546;2023-05-01T13:22:34;95756.28;;;13.36;90.99
29239;BME280;16267;48.194;11.546;2023-05-01T13:25:08;95747.25;;;13.43;91.84
29239;BME280;16267;48.194;11.546;2023-05-01T13:27:39;95750.53;;;13.50;92.46
29239;BME280;16267;48.194;11.546;2023-05-01T13:30:08;95748.50;;;13.54;91.33
29239;BME280;16267;48.194;11.546;2023-05-01T13:32:39;95740.97;;;13.62;92.07